createdAt,value
2022-10-19T00:00:52.003Z,14.19
2022-10-19T00:03:22.403Z,14.35
2022-10-19T00:05:52.444Z,14.36
2022-10-19T00:08:20.186Z,14.28
2022-10-19T00:10:48.061Z,13.83
2022-10-19T00:13:16.179Z,14.05
2022-10-19T00:15:45.137Z,14.00
2022-10-19T00:18:12.841Z,14.37
2022-10-19T00:20:40.606Z,14.49
2022-10-19T00:23:11.045Z,14.45
2022-10-19T00:25:38.945Z,14.50
2022-10-19T00:28:06.898Z,14.54
2022-10-19T00:30:38.172Z,14.19
2022-10-19T00:33:05.919Z,14.59
2022-10-19T00:35:33.691Z,14.51
2022-10-19T00:38:01.397Z,14.15
2022-10-19T00:40:30.953Z,14.38
2022-10-19T00:42:58.638Z,14.63
2022-10-19T00:45:27.697Z,14.59
2022-10-19T00:47:55.796Z,14.93
2022-10-19T00:50:23.777Z,14.43
2022-10-19T00:52:51.584Z,14.93
2022-10-19T00:55:19.797Z,14.68
2022-10-19T00:57:48.983Z,15.37
2022-10-19T01:00:16.915Z,14.86
2022-10-19T01:02:44.720Z,14.80
2022-10-19T01:05:12.786Z,15.13
2022-10-19T01:07:40.702Z,15.01
2022-10-19T01:10:09.807Z,14.51
2022-10-19T01:12:56.887Z,14.95
2022-10-19T01:15:33.607Z,14.81
2022-10-19T01:18:07.776Z,15.01
2022-10-19T01:21:04.262Z,15.30
2022-10-19T01:24:16.079Z,15.01
2022-10-19T01:27:28.715Z,15.37
2022-10-19T01:30:05.390Z,14.93
2022-10-19T01:32:43.826Z,15.17
2022-10-19T01:35:17.913Z,15.08
2022-10-19T01:37:50.347Z,15.06
2022-10-19T01:40:27.873Z,15.36
2022-10-19T01:43:02.455Z,15.53
2022-10-19T01:45:39.639Z,15.88
2022-10-19T01:48:13.313Z,15.29
2022-10-19T01:50:47.063Z,15.07
2022-10-19T01:53:16.925Z,15.26
2022-10-19T01:55:48.707Z,15.35
2022-10-19T01:58:20.621Z,14.94
2022-10-19T02:00:54.665Z,14.89
2022-10-19T02:03:24.475Z,15.51
2022-10-19T02:05:54.133Z,15.47
2022-10-19T02:08:28.597Z,15.37
2022-10-19T02:10:57.925Z,15.24
2022-10-19T02:13:27.505Z,15.54
2022-10-19T02:16:00.083Z,15.23
2022-10-19T02:18:32.807Z,15.40
2022-10-19T02:21:03.155Z,15.37
2022-10-19T02:23:31.333Z,15.49
2022-10-19T02:26:00.335Z,15.43
2022-10-19T02:28:29.292Z,15.63
2022-10-19T02:30:59.915Z,15.71
2022-10-19T02:33:28.642Z,15.38
2022-10-19T02:35:56.949Z,15.28
2022-10-19T02:38:25.897Z,15.47
2022-10-19T02:41:01.015Z,14.98
2022-10-19T02:43:30.063Z,14.44
2022-10-19T02:46:05.328Z,14.84
2022-10-19T02:48:35.115Z,14.62
2022-10-19T02:51:03.379Z,14.64
2022-10-19T02:53:31.124Z,14.52
2022-10-19T02:55:58.923Z,14.47
2022-10-19T02:58:26.645Z,15.12
2022-10-19T03:00:54.474Z,14.78
2022-10-19T03:03:23.676Z,14.79
2022-10-19T03:05:52.218Z,14.52
2022-10-19T03:08:19.936Z,14.76
2022-10-19T03:10:47.681Z,14.82
2022-10-19T03:13:15.499Z,14.80
2022-10-19T03:15:43.198Z,14.78
2022-10-19T03:18:10.954Z,14.78
2022-10-19T03:20:40.009Z,14.93
2022-10-19T03:23:07.778Z,14.74
2022-10-19T03:25:35.497Z,14.43
2022-10-19T03:28:03.194Z,14.64
2022-10-19T03:30:30.926Z,14.54
2022-10-19T03:32:58.652Z,14.99
2022-10-19T03:35:26.392Z,14.52
2022-10-19T03:37:55.439Z,14.64
2022-10-19T03:40:23.154Z,14.77
2022-10-19T03:42:50.837Z,14.62
2022-10-19T03:45:18.573Z,14.86
2022-10-19T03:47:50.400Z,14.58
2022-10-19T03:50:18.367Z,14.72
2022-10-19T03:52:46.278Z,15.09
2022-10-19T03:55:15.636Z,15.13
2022-10-19T03:57:43.717Z,14.35
2022-10-19T04:00:12.642Z,13.95
2022-10-19T04:02:40.553Z,14.55
2022-10-19T04:05:09.219Z,14.69
2022-10-19T04:07:36.922Z,14.14
2022-10-19T04:10:05.089Z,13.87
2022-10-19T04:12:34.359Z,13.97
2022-10-19T04:15:02.051Z,14.04
2022-10-19T04:17:29.747Z,14.20
2022-10-19T04:19:57.472Z,14.26
2022-10-19T04:22:25.182Z,14.25
2022-10-19T04:24:52.956Z,14.34
2022-10-19T04:27:20.663Z,14.23
2022-10-19T04:29:49.776Z,13.44
2022-10-19T04:32:17.490Z,13.79
2022-10-19T04:34:45.205Z,14.11
2022-10-19T04:37:12.958Z,13.97
2022-10-19T04:39:43.171Z,13.58
2022-10-19T04:42:10.875Z,14.23
2022-10-19T04:44:38.917Z,14.49
2022-10-19T04:47:08.043Z,14.33
2022-10-19T04:49:35.776Z,14.11
2022-10-19T04:52:03.493Z,14.22
2022-10-19T04:54:31.249Z,14.08
2022-10-19T04:56:59.186Z,14.39
2022-10-19T04:59:26.907Z,14.19
2022-10-19T05:01:54.632Z,13.76
2022-10-19T05:04:23.731Z,13.89
2022-10-19T05:06:51.572Z,14.19
2022-10-19T05:09:19.315Z,13.70
2022-10-19T05:11:47.429Z,14.07
2022-10-19T05:14:15.325Z,13.76
2022-10-19T05:16:43.284Z,14.17
2022-10-19T05:19:14.247Z,14.06
2022-10-19T05:21:43.469Z,14.44
2022-10-19T05:24:12.795Z,13.86
2022-10-19T05:26:40.594Z,13.60
2022-10-19T05:29:12.952Z,13.76
2022-10-19T05:31:41.030Z,14.03
2022-10-19T05:34:08.866Z,13.75
2022-10-19T05:36:38.240Z,13.97
2022-10-19T05:39:10.314Z,14.05
2022-10-19T05:41:38.107Z,14.07
2022-10-19T05:44:06.894Z,13.69
2022-10-19T05:46:35.838Z,13.73
2022-10-19T05:49:03.603Z,13.85
2022-10-19T05:51:31.308Z,13.90
2022-10-19T05:53:59.149Z,13.70
2022-10-19T05:56:30.504Z,14.29
2022-10-19T05:58:59.429Z,13.64
2022-10-19T06:01:28.393Z,13.30
2022-10-19T06:03:58.076Z,13.90
2022-10-19T06:06:26.878Z,14.02
2022-10-19T06:08:56.567Z,13.53
2022-10-19T06:11:26.731Z,14.10
2022-10-19T06:13:57.782Z,13.94
2022-10-19T06:16:27.022Z,13.96
2022-10-19T06:18:56.118Z,13.43
2022-10-19T06:21:25.621Z,13.70
2022-10-19T06:23:53.911Z,14.08
2022-10-19T06:26:22.271Z,14.42
2022-10-19T06:28:50.813Z,14.52
2022-10-19T06:31:19.923Z,14.40
2022-10-19T06:33:49.438Z,13.85
2022-10-19T06:36:19.240Z,13.85
2022-10-19T06:38:47.388Z,13.75
2022-10-19T06:41:15.721Z,13.72
2022-10-19T06:43:44.390Z,14.63
2022-10-19T06:46:14.914Z,14.48
2022-10-19T06:48:44.380Z,14.34
2022-10-19T06:51:13.588Z,14.37
2022-10-19T06:53:41.315Z,14.44
2022-10-19T06:56:09.695Z,13.89
2022-10-19T06:58:38.169Z,13.69
2022-10-19T07:01:08.457Z,14.53
2022-10-19T07:03:37.263Z,14.32
2022-10-19T07:06:08.482Z,13.98
2022-10-19T07:08:37.357Z,14.48
2022-10-19T07:11:07.269Z,14.44
2022-10-19T07:13:35.187Z,15.05
2022-10-19T07:16:09.287Z,15.33
2022-10-19T07:18:38.632Z,14.24
2022-10-19T07:21:09.753Z,14.39
2022-10-19T07:23:39.757Z,14.66
2022-10-19T07:26:11.844Z,14.54
2022-10-19T07:28:40.912Z,13.74
2022-10-19T07:31:10.447Z,13.84
2022-10-19T07:33:38.817Z,13.46
2022-10-19T07:36:09.996Z,13.74
2022-10-19T07:38:38.632Z,13.55
2022-10-19T07:41:08.448Z,13.63
2022-10-19T07:43:36.284Z,13.82
2022-10-19T07:46:06.333Z,14.44
2022-10-19T07:48:34.371Z,15.03
2022-10-19T07:51:03.219Z,15.40
2022-10-19T07:53:32.305Z,15.57
2022-10-19T07:56:05.012Z,16.28
2022-10-19T07:58:32.769Z,17.58
2022-10-19T08:01:01.814Z,17.56
2022-10-19T08:06:20.039Z,18.07
2022-10-19T08:08:50.183Z,18.23
2022-10-19T08:11:20.310Z,17.82
2022-10-19T08:13:48.438Z,17.56
2022-10-19T08:16:25.258Z,16.30
2022-10-19T08:18:54.257Z,17.91
2022-10-19T08:21:21.964Z,17.52
2022-10-19T08:23:51.037Z,17.43
2022-10-19T08:26:18.748Z,17.00
2022-10-19T08:28:46.575Z,16.69
2022-10-19T08:31:16.903Z,15.93
2022-10-19T08:33:44.886Z,15.63
2022-10-19T08:36:14.510Z,17.46
2022-10-19T08:38:44.700Z,16.80
2022-10-19T08:41:33.898Z,18.00
2022-10-19T08:44:41.420Z,17.45
2022-10-19T08:47:23.552Z,18.23
2022-10-19T08:49:52.210Z,16.94
2022-10-19T08:52:22.389Z,16.65
2022-10-19T08:54:54.439Z,17.18
2022-10-19T08:57:40.994Z,18.28
2022-10-19T09:00:13.725Z,18.57
2022-10-19T09:02:55.318Z,17.63
2022-10-19T09:05:36.878Z,16.85
2022-10-19T09:08:06.985Z,16.68
2022-10-19T09:10:38.525Z,17.25
2022-10-19T09:13:16.250Z,18.28
2022-10-19T09:15:47.208Z,17.62
2022-10-19T09:18:19.893Z,17.14
2022-10-19T09:20:50.165Z,16.49
2022-10-19T09:23:23.274Z,14.98
2022-10-19T09:25:52.123Z,16.08
2022-10-19T09:28:41.585Z,18.15
2022-10-19T09:31:16.393Z,16.94
2022-10-19T09:33:47.954Z,16.73
2022-10-19T09:36:22.785Z,16.20
2022-10-19T09:38:55.598Z,16.40
2022-10-19T09:41:25.392Z,18.94
2022-10-19T09:43:55.770Z,19.08
2022-10-19T09:46:38.673Z,20.67
2022-10-19T09:49:06.944Z,19.68
2022-10-19T09:51:45.922Z,19.49
2022-10-19T09:54:32.104Z,16.91
2022-10-19T09:56:59.942Z,17.83
2022-10-19T09:59:34.422Z,18.70
2022-10-19T10:02:14.876Z,18.92
2022-10-19T10:04:43.058Z,20.84
2022-10-19T10:07:17.353Z,19.63
2022-10-19T10:09:46.045Z,19.92
2022-10-19T10:12:16.593Z,18.69
2022-10-19T10:14:46.410Z,20.20
2022-10-19T10:17:17.965Z,21.61
2022-10-19T10:20:03.946Z,22.14
2022-10-19T10:22:34.336Z,20.11
2022-10-19T10:25:03.411Z,19.47
2022-10-19T10:27:34.549Z,18.18
2022-10-19T10:30:08.290Z,17.69
2022-10-19T10:32:38.886Z,18.56
2022-10-19T10:35:15.808Z,17.95
2022-10-19T10:37:45.697Z,17.12
2022-10-19T10:40:23.505Z,17.26
2022-10-19T10:42:53.661Z,19.02
2022-10-19T10:45:30.248Z,19.65
2022-10-19T10:47:59.121Z,20.12
2022-10-19T10:50:32.993Z,19.39
2022-10-19T10:53:03.301Z,18.39
2022-10-19T10:55:31.848Z,18.99
2022-10-19T10:58:19.163Z,19.01
2022-10-19T11:00:50.266Z,17.42
2022-10-19T11:03:23.999Z,18.64
2022-10-19T11:05:57.002Z,19.17
2022-10-19T11:08:33.194Z,18.81
2022-10-19T11:11:08.603Z,17.57
2022-10-19T11:13:43.630Z,17.33
2022-10-19T11:16:16.638Z,17.05
2022-10-19T11:18:48.539Z,18.41
2022-10-19T11:21:21.787Z,19.31
2022-10-19T11:24:00.002Z,17.67
2022-10-19T11:26:41.176Z,18.69
2022-10-19T11:29:27.959Z,15.96
2022-10-19T11:31:58.119Z,15.41
2022-10-19T11:34:48.166Z,15.15
2022-10-19T11:37:25.889Z,16.47
2022-10-19T11:40:05.157Z,17.97
2022-10-19T11:42:48.600Z,18.25
2022-10-19T15:06:51.798Z,18.16
2022-10-19T15:09:37.497Z,17.37
2022-10-19T15:12:17.986Z,17.67
2022-10-19T15:14:47.209Z,17.78
2022-10-19T15:17:26.960Z,17.02
2022-10-19T15:20:01.076Z,16.43
2022-10-19T15:22:41.027Z,16.71
2022-10-19T15:25:28.197Z,16.85
2022-10-19T15:27:57.618Z,16.69
2022-10-19T15:30:29.435Z,16.84
2022-10-19T15:33:11.162Z,17.64
2022-10-19T15:35:40.972Z,16.81
2022-10-19T15:38:16.033Z,16.64
2022-10-19T15:40:47.037Z,15.93
2022-10-19T15:43:37.979Z,15.86
2022-10-19T15:46:07.664Z,16.22
2022-10-19T15:48:50.036Z,15.37
2022-10-19T15:51:39.323Z,15.15
2022-10-19T15:54:07.958Z,14.97
2022-10-19T15:56:39.761Z,14.74
2022-10-19T15:59:13.068Z,14.38
2022-10-19T16:01:41.109Z,14.24
2022-10-19T16:04:09.104Z,13.78
2022-10-19T16:06:39.932Z,14.53
2022-10-19T16:09:08.006Z,14.03
2022-10-19T16:11:37.157Z,13.64
2022-10-19T16:14:04.990Z,13.56
2022-10-19T16:16:34.293Z,13.67
2022-10-19T16:19:02.427Z,13.58
2022-10-19T16:21:32.729Z,13.60
2022-10-19T16:24:01.186Z,13.79
2022-10-19T16:26:29.209Z,13.85
2022-10-19T16:28:58.257Z,13.60
2022-10-19T16:31:26.085Z,13.53
2022-10-19T16:33:53.880Z,13.51
2022-10-19T16:36:21.587Z,13.43
2022-10-19T16:38:49.690Z,13.39
2022-10-19T16:41:17.745Z,12.99
2022-10-19T16:43:45.404Z,12.95
2022-10-19T16:46:14.451Z,12.68
2022-10-19T16:48:42.115Z,12.72
2022-10-19T16:51:34.224Z,12.65
2022-10-19T16:54:01.946Z,12.59
2022-10-19T16:56:31.927Z,12.44
2022-10-19T16:59:01.355Z,12.37
2022-10-19T17:01:31.403Z,12.52
2022-10-19T17:03:59.661Z,12.65
2022-10-19T17:06:28.584Z,12.45
2022-10-19T17:11:45.129Z,12.62
2022-10-19T17:14:13.910Z,12.38
2022-10-19T17:16:43.009Z,12.12
2022-10-19T17:19:11.760Z,11.89
2022-10-19T17:21:42.278Z,12.08
2022-10-19T17:24:20.385Z,11.91
2022-10-19T17:26:50.677Z,11.74
2022-10-19T17:29:18.619Z,11.79
2022-10-19T17:31:48.027Z,11.97
2022-10-19T17:34:16.085Z,11.88
2022-10-19T17:36:45.547Z,12.18
2022-10-19T17:39:17.637Z,11.84
2022-10-19T17:41:45.834Z,11.93
2022-10-19T17:44:13.606Z,11.68
2022-10-19T17:46:41.283Z,11.76
2022-10-19T17:49:10.879Z,11.83
2022-10-19T17:51:39.180Z,11.77
2022-10-19T17:54:09.423Z,11.65
2022-10-19T17:56:37.974Z,11.67
2022-10-19T17:59:07.945Z,11.40
2022-10-19T18:01:36.277Z,11.72
2022-10-19T18:04:04.319Z,11.16
2022-10-19T18:06:35.465Z,11.04
2022-10-19T18:09:05.583Z,11.35
2022-10-19T18:11:36.977Z,11.24
2022-10-19T18:14:06.004Z,11.10
2022-10-19T18:16:35.947Z,11.15
2022-10-19T18:19:05.381Z,11.35
2022-10-19T18:21:38.434Z,11.10
2022-10-19T18:24:09.150Z,11.39
2022-10-19T18:26:40.347Z,11.26
2022-10-19T18:29:12.464Z,11.17
2022-10-19T18:31:40.913Z,11.12
2022-10-19T18:34:13.517Z,10.66
2022-10-19T18:36:43.092Z,10.80
2022-10-19T18:39:12.807Z,11.77
2022-10-19T18:41:41.167Z,11.37
2022-10-19T18:44:13.108Z,11.01
2022-10-19T18:46:41.749Z,10.54
2022-10-19T18:49:11.581Z,9.95
2022-10-19T18:51:39.525Z,10.38
2022-10-19T18:54:09.238Z,10.60
2022-10-19T18:56:37.434Z,11.50
2022-10-19T18:59:06.406Z,11.26
2022-10-19T19:01:34.414Z,11.28
2022-10-19T19:04:07.699Z,11.24
2022-10-19T19:06:36.239Z,11.08
2022-10-19T19:09:07.500Z,10.81
2022-10-19T19:11:39.219Z,10.91
2022-10-19T19:14:09.435Z,11.19
2022-10-19T19:16:38.944Z,10.28
2022-10-19T19:19:08.098Z,10.04
2022-10-19T19:21:37.016Z,10.12
2022-10-19T19:24:07.157Z,10.20
2022-10-19T19:26:39.320Z,10.10
2022-10-19T19:29:07.218Z,10.01
2022-10-19T19:31:35.245Z,9.43
2022-10-19T19:34:03.259Z,9.27
2022-10-19T19:36:31.077Z,9.43
2022-10-19T19:39:23.738Z,8.96
2022-10-19T19:41:52.896Z,9.25
2022-10-19T19:44:20.773Z,9.20
2022-10-19T19:46:48.940Z,9.17
2022-10-19T19:49:17.090Z,8.92
2022-10-19T19:51:44.986Z,8.97
2022-10-19T19:54:12.872Z,9.11
2022-10-19T19:56:42.271Z,8.60
2022-10-19T19:59:13.574Z,8.69
2022-10-19T20:01:42.151Z,8.53
2022-10-19T20:04:10.393Z,8.89
2022-10-19T20:06:39.842Z,8.79
2022-10-19T20:09:08.802Z,8.67
2022-10-19T20:11:41.856Z,8.48
2022-10-19T20:14:11.880Z,8.34
2022-10-19T20:16:39.605Z,8.76
2022-10-19T20:19:09.601Z,8.88
2022-10-19T20:21:37.673Z,8.50
2022-10-19T20:24:05.738Z,8.82
2022-10-19T20:26:34.066Z,8.80
2022-10-19T20:29:03.882Z,8.73
2022-10-19T20:31:41.403Z,8.64
2022-10-19T20:34:10.961Z,8.88
2022-10-19T20:36:38.897Z,8.51
2022-10-19T20:39:06.697Z,8.54
2022-10-19T20:41:34.715Z,8.45
2022-10-19T20:44:05.636Z,8.46
2022-10-19T20:46:36.887Z,8.37
2022-10-19T20:49:04.882Z,8.32
2022-10-19T20:51:35.300Z,8.72
2022-10-19T20:54:07.065Z,8.23
2022-10-19T20:56:38.809Z,7.98
2022-10-19T20:59:09.049Z,8.59
2022-10-19T21:01:42.577Z,8.87
2022-10-19T21:04:12.333Z,8.68
2022-10-19T21:06:42.718Z,8.46
2022-10-19T21:09:12.029Z,8.37
2022-10-19T21:11:42.872Z,8.02
2022-10-19T21:14:14.446Z,8.01
2022-10-19T21:16:43.690Z,7.90
2022-10-19T21:19:14.170Z,8.20
2022-10-19T21:21:43.968Z,8.17
2022-10-19T21:24:14.146Z,8.53
2022-10-19T21:26:42.950Z,8.46
2022-10-19T21:29:12.186Z,8.53
2022-10-19T21:31:43.095Z,8.28
2022-10-19T21:34:16.352Z,7.99
2022-10-19T21:36:44.208Z,7.81
2022-10-19T21:39:12.063Z,8.02
2022-10-19T21:41:39.766Z,8.17
2022-10-19T21:44:07.465Z,8.54
2022-10-19T21:46:35.295Z,7.78
2022-10-19T21:49:03.045Z,8.15
2022-10-19T21:51:35.993Z,8.39
2022-10-19T21:54:04.609Z,8.38
2022-10-19T21:56:32.549Z,7.99
2022-10-19T21:59:00.406Z,7.96
2022-10-19T22:01:30.278Z,7.66
2022-10-19T22:03:58.923Z,7.83
2022-10-19T22:06:27.839Z,7.63
2022-10-19T22:08:57.681Z,8.22
2022-10-19T22:11:26.700Z,8.28
2022-10-19T22:13:55.751Z,8.01
2022-10-19T22:16:24.602Z,8.13
2022-10-19T22:18:53.285Z,8.03
2022-10-19T22:21:23.263Z,7.94
2022-10-19T22:23:57.115Z,8.12
2022-10-19T22:26:27.125Z,7.73
2022-10-19T22:28:56.161Z,7.81
2022-10-19T22:31:24.155Z,8.01
2022-10-19T22:33:51.854Z,7.88
2022-10-19T22:36:19.951Z,7.65
2022-10-19T22:38:47.764Z,7.52
2022-10-19T22:41:16.844Z,7.52
2022-10-19T22:43:44.595Z,7.38
2022-10-19T22:46:12.264Z,7.45
2022-10-19T22:48:39.968Z,7.33
2022-10-19T22:51:07.977Z,7.51
2022-10-19T22:53:35.697Z,7.59
2022-10-19T22:56:03.389Z,7.64
2022-10-19T22:58:32.546Z,7.69
2022-10-19T23:01:01.897Z,7.78
2022-10-19T23:03:29.635Z,7.96
2022-10-19T23:05:57.783Z,7.83
2022-10-19T23:08:25.751Z,7.57
2022-10-19T23:10:54.810Z,7.47
2022-10-19T23:13:22.649Z,7.44
2022-10-19T23:15:51.744Z,7.64
2022-10-19T23:18:19.611Z,7.59
2022-10-19T23:20:54.430Z,7.49
2022-10-19T23:23:22.137Z,7.29
2022-10-19T23:25:59.013Z,7.10
2022-10-19T23:28:26.730Z,6.92
2022-10-19T23:30:57.202Z,7.04
2022-10-19T23:33:24.989Z,7.14
2022-10-19T23:35:53.327Z,7.26
2022-10-19T23:38:21.014Z,7.06
2022-10-19T23:40:48.770Z,7.25
2022-10-19T23:43:16.468Z,7.24
2022-10-19T23:45:46.061Z,7.16
2022-10-19T23:48:15.157Z,7.17
2022-10-19T23:50:42.865Z,7.37
2022-10-19T23:53:10.556Z,7.27
2022-10-19T23:55:38.601Z,7.63
2022-10-19T23:58:06.280Z,7.70
